Hovedside
METAR-TAF:

METAR-TAF

Lufthavner :

Karleby, Finland

Kronoby lufthavn

breddegrad: 63-43N, lengdegrad: 023-09E, høyde over havet: 25 m

Gjeldene værobservasjon

Denne rapporten ble laget for 28 minutter siden, klokken 18:20 UTC
Vind 5 kt fra Øst-sørøst, skiftende mellom Øst og Sør-sørøst
Temperatur 10°C
Luftfuktighet 87%
Trykk 1031 hPa
Sikt: 9000 m
Brutte skyer i en høyde av 1300 ft

METAR: EFKK 221820Z 12005KT 090V150 9000 BKN013 10/08 Q1031

Tid: 21:48 (18:48 UTC)

Varsel

Denne rapporten ble laget for 1 time og 16 minutter siden, klokken 17:32 UTC
Varsel gyldig fra 22. klokken 18 UTC til 22. klokken 23 UTC
Vind 5 kt fra Øst-sørøst
Sikt 10 km eller mer
Brutte skyer i en høyde av 1500 ft
Midlertidig
fra 22. klokken 18 UTC til 22. klokken 23 UTC
Brutte skyer i en høyde av 1200 ft

TAF: EFKK 221732Z 2218/2223 12005KT 9999 BKN015 TEMPO 2218/2223 BKN012

Værobservasjoner og værvarsel for over 4000 flyplasser (METAR- og TAF-rapporter).

Tilgjengelige stasjoner er representert av de røde og gule prikkene på kartet.

Hold musepekeren over prikken for å se navnet på stasjonen.

Klikk så for å se værobservasjoner og -varsler.

For å forandre kartet kan du klikke på den grønne knappen med svart kryss for å zoome inn, på den grønne knappen med strek for å zoome ut, eller på de grønne pilene for å se tilstøtende kart.


METAR-TAF: